createdAt,value
2023-05-15T00:00:47.530Z,63.40
2023-05-15T00:02:49.401Z,63.40
2023-05-15T00:04:51.202Z,63.40
2023-05-15T00:06:53.347Z,63.60
2023-05-15T00:08:55.108Z,63.70
2023-05-15T00:13:01.501Z,64.10
2023-05-15T00:15:03.191Z,64.10
2023-05-15T00:17:04.911Z,64.00
2023-05-15T00:19:06.701Z,64.00
2023-05-15T00:21:08.964Z,64.20
2023-05-15T00:23:10.850Z,64.00
2023-05-15T00:25:12.478Z,64.00
2023-05-15T00:27:14.170Z,64.10
2023-05-15T00:29:15.825Z,64.00
2023-05-15T00:31:17.559Z,64.00
2023-05-15T00:33:19.403Z,64.20
2023-05-15T00:35:21.024Z,64.50
2023-05-15T00:37:23.423Z,65.30
2023-05-15T00:39:25.045Z,64.40
2023-05-15T00:41:28.572Z,64.40
2023-05-15T00:43:30.835Z,64.60
2023-05-15T00:45:32.495Z,64.70
2023-05-15T00:47:34.557Z,64.60
2023-05-15T00:49:37.362Z,64.50
2023-05-15T00:51:40.727Z,64.50
2023-05-15T00:53:42.893Z,64.70
2023-05-15T00:55:47.930Z,64.70
2023-05-15T00:57:50.236Z,64.70
2023-05-15T00:59:52.198Z,64.50
2023-05-15T01:01:54.136Z,64.70
2023-05-15T01:03:55.808Z,64.90
2023-05-15T01:05:57.569Z,65.00
2023-05-15T01:08:13.585Z,65.10
2023-05-15T01:10:15.933Z,65.00
2023-05-15T01:12:18.307Z,64.70
2023-05-15T01:14:20.022Z,65.00
2023-05-15T01:16:22.200Z,65.10
2023-05-15T01:18:24.019Z,65.10
2023-05-15T01:20:26.730Z,65.30
2023-05-15T01:22:31.300Z,65.20
2023-05-15T01:24:47.249Z,65.20
2023-05-15T01:27:07.459Z,65.10
2023-05-15T01:29:14.610Z,64.90
2023-05-15T01:31:17.756Z,65.20
2023-05-15T01:33:28.686Z,65.30
2023-05-15T01:35:48.869Z,65.20
2023-05-15T01:37:54.763Z,65.00
2023-05-15T01:40:00.221Z,65.00
2023-05-15T01:42:07.641Z,65.00
2023-05-15T01:44:16.909Z,64.80
2023-05-15T01:46:20.945Z,65.00
2023-05-15T01:48:26.409Z,65.10
2023-05-15T01:50:31.449Z,65.10
2023-05-15T01:52:35.287Z,65.10
2023-05-15T01:54:38.581Z,65.10
2023-05-15T01:56:43.128Z,65.10
2023-05-15T01:58:45.168Z,65.20
2023-05-15T02:00:47.727Z,65.00
2023-05-15T02:02:49.898Z,64.90
2023-05-15T02:04:53.892Z,65.10
2023-05-15T02:06:55.764Z,65.10
2023-05-15T02:08:58.146Z,65.20
2023-05-15T02:11:03.007Z,65.30
2023-05-15T02:13:06.045Z,65.40
2023-05-15T02:15:09.821Z,65.50
2023-05-15T02:17:11.576Z,65.50
2023-05-15T02:19:13.394Z,65.40
2023-05-15T02:21:16.052Z,65.40
2023-05-15T02:23:17.943Z,65.30
2023-05-15T02:25:26.365Z,65.10
2023-05-15T02:27:29.170Z,65.30
2023-05-15T02:29:49.396Z,65.30
2023-05-15T02:31:51.928Z,65.10
2023-05-15T02:34:07.095Z,64.80
2023-05-15T02:36:09.549Z,65.00
2023-05-15T02:38:13.397Z,65.10
2023-05-15T02:40:15.522Z,65.20
2023-05-15T02:42:18.008Z,65.20
2023-05-15T02:44:20.648Z,65.20
2023-05-15T02:46:25.068Z,65.10
2023-05-15T02:48:28.885Z,65.30
2023-05-15T02:50:30.764Z,65.30
2023-05-15T02:52:33.456Z,65.00
2023-05-15T02:54:35.127Z,65.00
2023-05-15T02:56:36.919Z,65.10
2023-05-15T02:58:38.985Z,65.20
2023-05-15T03:00:40.721Z,65.10
2023-05-15T03:02:42.466Z,65.10
2023-05-15T03:04:44.133Z,64.80
2023-05-15T03:06:45.787Z,64.70
2023-05-15T03:08:47.451Z,64.90
2023-05-15T03:10:49.134Z,64.80
2023-05-15T03:12:50.881Z,65.00
2023-05-15T03:14:52.555Z,65.00
2023-05-15T03:16:54.313Z,65.00
2023-05-15T03:18:56.063Z,65.10
2023-05-15T03:20:57.820Z,65.00
2023-05-15T03:22:59.684Z,64.90
2023-05-15T03:25:01.924Z,64.80
2023-05-15T03:27:04.734Z,64.70
2023-05-15T03:29:06.398Z,65.00
2023-05-15T03:31:08.607Z,65.20
2023-05-15T03:33:10.330Z,65.10
2023-05-15T03:35:12.026Z,65.30
2023-05-15T03:37:13.676Z,65.10
2023-05-15T03:39:15.391Z,65.00
2023-05-15T03:41:17.066Z,65.20
2023-05-15T03:43:18.754Z,65.00
2023-05-15T03:45:23.718Z,65.10
2023-05-15T03:47:26.032Z,65.40
2023-05-15T03:49:27.773Z,65.50
2023-05-15T03:51:29.444Z,65.50
2023-05-15T03:53:31.320Z,65.20
2023-05-15T03:55:33.048Z,65.50
2023-05-15T03:57:35.570Z,65.60
2023-05-15T03:59:37.232Z,65.70
2023-05-15T04:01:47.533Z,65.60
2023-05-15T04:03:57.273Z,65.50
2023-05-15T04:05:58.958Z,65.60
2023-05-15T04:08:00.653Z,65.60
2023-05-15T04:10:02.853Z,65.50
2023-05-15T04:12:04.717Z,66.00
2023-05-15T04:14:06.392Z,65.80
2023-05-15T04:16:08.608Z,66.10
2023-05-15T04:18:10.299Z,66.20
2023-05-15T04:20:14.159Z,66.30
2023-05-15T04:22:15.779Z,66.10
2023-05-15T04:24:17.379Z,66.40
2023-05-15T04:26:18.980Z,66.10
2023-05-15T04:28:21.641Z,66.30
2023-05-15T04:30:23.274Z,66.30
2023-05-15T04:32:24.977Z,66.20
2023-05-15T04:34:26.648Z,66.20
2023-05-15T04:36:28.356Z,66.00
2023-05-15T04:38:30.137Z,66.20
2023-05-15T04:40:31.899Z,65.80
2023-05-15T04:42:33.873Z,66.00
2023-05-15T04:44:35.533Z,65.70
2023-05-15T04:46:37.709Z,66.00
2023-05-15T04:48:39.427Z,66.40
2023-05-15T04:50:41.114Z,66.10
2023-05-15T04:52:45.638Z,66.00
2023-05-15T04:54:49.538Z,65.70
2023-05-15T04:56:51.166Z,65.70
2023-05-15T04:58:52.769Z,65.70
2023-05-15T05:00:54.453Z,65.60
2023-05-15T05:02:56.141Z,65.80
2023-05-15T05:04:57.883Z,65.70
2023-05-15T05:06:59.538Z,65.70
2023-05-15T05:09:01.147Z,65.80
2023-05-15T05:11:03.173Z,65.80
2023-05-15T05:13:04.840Z,65.60
2023-05-15T05:15:06.777Z,66.00
2023-05-15T05:17:08.469Z,65.70
2023-05-15T05:19:10.296Z,66.00
2023-05-15T05:21:12.024Z,66.00
2023-05-15T05:23:16.623Z,65.70
2023-05-15T05:25:18.398Z,66.00
2023-05-15T05:27:20.046Z,65.80
2023-05-15T05:29:21.653Z,65.70
2023-05-15T05:31:23.454Z,65.60
2023-05-15T05:33:25.224Z,65.70
2023-05-15T05:35:28.140Z,65.70
2023-05-15T05:37:29.856Z,66.20
2023-05-15T05:39:31.450Z,66.10
2023-05-15T05:41:33.119Z,66.30
2023-05-15T05:43:34.735Z,66.10
2023-05-15T05:45:36.423Z,66.00
2023-05-15T05:47:38.152Z,66.10
2023-05-15T05:49:40.346Z,66.10
2023-05-15T05:51:41.993Z,66.00
2023-05-15T05:53:43.668Z,66.00
2023-05-15T05:55:45.312Z,65.90
2023-05-15T05:57:46.925Z,65.70
2023-05-15T05:59:49.761Z,65.80
2023-05-15T06:01:51.426Z,66.10
2023-05-15T06:03:53.191Z,66.00
2023-05-15T06:05:55.107Z,66.00
2023-05-15T06:07:57.819Z,66.00
2023-05-15T06:09:59.517Z,66.10
2023-05-15T06:12:04.360Z,66.30
2023-05-15T06:14:08.288Z,66.30
2023-05-15T06:16:09.983Z,66.20
2023-05-15T06:18:11.683Z,66.20
2023-05-15T06:20:14.188Z,66.40
2023-05-15T06:22:15.932Z,66.20
2023-05-15T06:24:17.595Z,66.30
2023-05-15T06:26:19.881Z,66.30
2023-05-15T06:28:21.605Z,66.30
2023-05-15T06:30:23.326Z,66.20
2023-05-15T06:32:25.256Z,66.30
2023-05-15T06:34:26.968Z,66.50
2023-05-15T06:36:28.722Z,66.40
2023-05-15T06:38:30.429Z,66.40
2023-05-15T06:40:32.098Z,66.50
2023-05-15T06:42:33.848Z,66.50
2023-05-15T06:44:36.045Z,66.30
2023-05-15T06:46:37.774Z,66.30
2023-05-15T06:48:39.447Z,66.40
2023-05-15T06:50:41.090Z,66.40
2023-05-15T06:52:42.716Z,66.30
2023-05-15T06:54:44.434Z,66.20
2023-05-15T06:56:46.394Z,66.10
2023-05-15T06:58:48.049Z,66.10
2023-05-15T07:00:49.696Z,66.00
2023-05-15T07:02:51.390Z,66.00
2023-05-15T07:04:53.075Z,66.10
2023-05-15T07:06:54.778Z,66.10
2023-05-15T07:08:56.448Z,66.20
2023-05-15T07:10:58.096Z,66.30
2023-05-15T07:13:01.492Z,66.40
2023-05-15T07:15:03.543Z,66.20
2023-05-15T07:17:05.222Z,66.10
2023-05-15T07:19:08.602Z,66.10
2023-05-15T07:21:10.382Z,66.10
2023-05-15T07:23:12.035Z,66.20
2023-05-15T07:25:15.608Z,66.20
2023-05-15T07:27:18.556Z,66.20
2023-05-15T07:29:20.229Z,66.10
2023-05-15T07:31:22.068Z,66.10
2023-05-15T07:33:23.774Z,66.10
2023-05-15T07:35:25.976Z,66.10
2023-05-15T07:37:27.790Z,66.20
2023-05-15T07:39:29.417Z,66.20
2023-05-15T07:41:33.319Z,66.20
2023-05-15T07:43:35.475Z,66.30
2023-05-15T07:45:37.192Z,66.10
2023-05-15T07:47:41.824Z,66.20
2023-05-15T07:49:43.514Z,65.90
2023-05-15T07:51:45.218Z,65.70
2023-05-15T07:53:47.050Z,65.60
2023-05-15T07:55:48.775Z,65.40
2023-05-15T07:59:55.545Z,65.00
2023-05-15T08:01:57.278Z,65.00
2023-05-15T08:03:58.987Z,65.70
2023-05-15T08:06:00.784Z,64.80
2023-05-15T08:08:02.443Z,64.80
2023-05-15T08:10:06.213Z,64.80
2023-05-15T08:12:20.740Z,64.60
2023-05-15T08:14:22.505Z,64.50
2023-05-15T08:16:24.227Z,64.40
2023-05-15T08:18:26.038Z,64.30
2023-05-15T08:20:27.724Z,64.10
2023-05-15T08:22:30.343Z,64.00
2023-05-15T08:24:32.122Z,63.90
2023-05-15T08:26:33.782Z,64.00
2023-05-15T08:28:35.516Z,64.20
2023-05-15T08:30:37.273Z,64.00
2023-05-15T08:32:38.966Z,64.10
2023-05-15T08:34:40.565Z,64.10
2023-05-15T08:36:42.220Z,64.00
2023-05-15T08:38:43.850Z,64.00
2023-05-15T08:40:46.616Z,64.00
2023-05-15T08:42:49.805Z,64.00
2023-05-15T08:44:51.568Z,63.90
2023-05-15T08:46:53.559Z,63.90
2023-05-15T08:48:56.161Z,63.80
2023-05-15T08:50:58.419Z,63.90
2023-05-15T08:53:01.674Z,63.70
2023-05-15T08:55:03.898Z,63.30
2023-05-15T08:57:05.933Z,63.30
2023-05-15T08:59:07.848Z,63.20
2023-05-15T09:01:10.604Z,63.20
2023-05-15T09:03:16.461Z,63.10
2023-05-15T09:05:18.219Z,63.20
2023-05-15T09:07:20.500Z,63.40
2023-05-15T09:09:23.277Z,63.40
2023-05-15T09:11:25.791Z,63.30
2023-05-15T09:13:27.435Z,63.30
2023-05-15T09:15:30.032Z,63.30
2023-05-15T09:17:31.739Z,63.20
2023-05-15T09:19:38.237Z,63.00
2023-05-15T09:21:39.883Z,63.10
2023-05-15T09:23:41.552Z,63.10
2023-05-15T09:25:44.690Z,63.00
2023-05-15T09:27:46.480Z,63.00
2023-05-15T09:29:51.255Z,62.80
2023-05-15T09:31:53.070Z,62.90
2023-05-15T09:33:59.142Z,62.80
2023-05-15T09:36:01.837Z,62.50
2023-05-15T09:38:07.502Z,62.50
2023-05-15T09:40:10.821Z,62.40
2023-05-15T09:42:13.527Z,62.50
2023-05-15T09:44:21.571Z,62.40
2023-05-15T09:46:24.200Z,61.80
2023-05-15T09:48:26.107Z,62.30
2023-05-15T09:50:34.604Z,62.20
2023-05-15T09:52:36.513Z,62.10
2023-05-15T09:54:38.664Z,62.10
2023-05-15T09:56:41.174Z,62.20
2023-05-15T09:58:56.066Z,62.20
2023-05-15T10:00:59.506Z,62.10
2023-05-15T10:03:02.187Z,62.30
2023-05-15T10:05:04.260Z,61.90
2023-05-15T10:07:07.874Z,61.70
2023-05-15T10:09:10.619Z,61.80
2023-05-15T10:11:12.398Z,62.00
2023-05-15T10:13:14.171Z,62.00
2023-05-15T10:15:16.879Z,61.90
2023-05-15T10:17:22.486Z,61.80
2023-05-15T10:19:25.373Z,61.60
2023-05-15T10:21:28.000Z,61.80
2023-05-15T10:23:30.968Z,61.80
2023-05-15T10:25:55.798Z,61.20
2023-05-15T10:27:57.974Z,61.30
2023-05-15T10:30:00.248Z,61.30
2023-05-15T10:32:02.023Z,61.80
2023-05-15T10:34:04.165Z,61.80
2023-05-15T10:36:06.282Z,61.80
2023-05-15T10:38:08.590Z,61.70
2023-05-15T10:40:10.654Z,61.60
2023-05-15T10:42:12.817Z,61.40
2023-05-15T10:44:14.702Z,61.50
2023-05-15T10:46:16.473Z,61.60
2023-05-15T10:48:19.168Z,61.80
2023-05-15T10:50:21.110Z,61.80
2023-05-15T10:52:22.874Z,60.90
2023-05-15T10:54:24.541Z,61.10
2023-05-15T10:56:33.710Z,61.30
2023-05-15T10:58:35.838Z,61.20
2023-05-15T11:00:44.864Z,61.00
2023-05-15T11:02:46.649Z,61.00
2023-05-15T11:04:48.415Z,61.10
2023-05-15T11:06:50.876Z,60.40
2023-05-15T11:08:52.622Z,60.40
2023-05-15T11:10:54.526Z,59.70
2023-05-15T11:12:59.472Z,60.00
2023-05-15T11:15:01.138Z,59.70
2023-05-15T11:17:04.306Z,59.60
2023-05-15T11:19:21.620Z,59.80
2023-05-15T11:21:23.296Z,59.30
2023-05-15T11:23:25.501Z,59.80
2023-05-15T11:25:33.300Z,59.40
2023-05-15T11:27:41.851Z,59.60
2023-05-15T11:30:02.492Z,58.20
2023-05-15T11:32:24.195Z,58.80
2023-05-15T11:34:35.500Z,58.90
2023-05-15T11:36:39.768Z,59.30
2023-05-15T11:38:41.491Z,59.00
2023-05-15T11:40:47.466Z,59.30
2023-05-15T11:43:05.920Z,58.80
2023-05-15T11:45:09.476Z,57.90
2023-05-15T11:47:11.382Z,58.60
2023-05-15T11:49:13.244Z,58.50
2023-05-15T11:51:14.903Z,58.00
2023-05-15T11:53:16.941Z,58.30
2023-05-15T11:55:19.072Z,57.50
2023-05-15T11:57:21.879Z,58.90
2023-05-15T11:59:26.311Z,57.90
2023-05-15T12:01:29.726Z,57.60
2023-05-15T12:03:36.284Z,56.90
2023-05-15T12:05:53.663Z,57.90
2023-05-15T12:08:00.909Z,56.90
2023-05-15T12:10:03.296Z,56.80
2023-05-15T12:12:06.292Z,56.80
2023-05-15T12:14:11.129Z,56.50
2023-05-15T12:16:12.889Z,55.50
2023-05-15T12:18:14.664Z,55.80
2023-05-15T12:20:17.975Z,54.80
2023-05-15T12:22:20.122Z,55.70
2023-05-15T12:24:22.504Z,55.90
2023-05-15T12:26:24.700Z,56.20
2023-05-15T12:28:26.729Z,55.30
2023-05-15T12:30:29.907Z,55.10
2023-05-15T12:32:32.502Z,54.80
2023-05-15T12:34:34.409Z,55.30
2023-05-15T12:36:36.200Z,55.60
2023-05-15T12:38:39.065Z,55.20
2023-05-15T12:40:40.867Z,55.20
2023-05-15T12:42:43.182Z,55.30
2023-05-15T12:44:44.954Z,55.10
2023-05-15T12:46:47.382Z,54.60
2023-05-15T12:48:49.716Z,54.80
2023-05-15T12:50:51.664Z,54.30
2023-05-15T12:52:54.121Z,54.70
2023-05-15T12:54:55.932Z,54.60
2023-05-15T12:56:58.063Z,54.00
2023-05-15T12:59:00.354Z,54.20
2023-05-15T13:01:03.403Z,54.30
2023-05-15T13:03:05.872Z,54.40
2023-05-15T13:05:07.757Z,54.60
2023-05-15T13:07:09.653Z,54.30
2023-05-15T13:09:11.387Z,54.30
2023-05-15T13:11:16.648Z,54.70
2023-05-15T13:13:18.440Z,54.80
2023-05-15T13:15:26.501Z,54.70
2023-05-15T13:17:29.953Z,54.90
2023-05-15T13:19:31.771Z,55.20
2023-05-15T13:21:33.859Z,55.10
2023-05-15T13:23:35.630Z,54.90
2023-05-15T13:25:40.438Z,55.60
2023-05-15T13:27:42.201Z,55.00
2023-05-15T13:29:43.978Z,55.00
2023-05-15T13:31:46.556Z,54.50
2023-05-15T13:33:48.622Z,54.40
2023-05-15T13:35:50.501Z,54.40
2023-05-15T13:37:52.293Z,54.00
2023-05-15T13:39:53.954Z,53.80
2023-05-15T13:41:55.722Z,53.60
2023-05-15T13:43:57.449Z,53.80
2023-05-15T13:45:59.254Z,53.40
2023-05-15T13:48:01.398Z,53.30
2023-05-15T13:50:03.469Z,53.50
2023-05-15T13:52:05.315Z,53.50
2023-05-15T13:54:07.049Z,53.40
2023-05-15T13:56:08.842Z,53.00
2023-05-15T13:58:11.930Z,53.30
2023-05-15T14:00:14.116Z,53.40
2023-05-15T14:02:16.081Z,53.50
2023-05-15T14:04:18.642Z,53.50
2023-05-15T14:06:20.456Z,53.50
2023-05-15T14:08:22.171Z,53.10
2023-05-15T14:10:26.946Z,52.90
2023-05-15T14:12:28.835Z,52.90
2023-05-15T14:14:31.145Z,52.80
2023-05-15T14:16:32.934Z,53.40
2023-05-15T14:18:34.729Z,54.00
2023-05-15T14:20:36.509Z,54.20
2023-05-15T14:22:38.758Z,53.90
2023-05-15T14:24:40.632Z,52.80
2023-05-15T14:26:44.256Z,53.50
2023-05-15T14:28:46.075Z,53.60
2023-05-15T14:30:47.841Z,53.70
2023-05-15T14:32:49.662Z,53.60
2023-05-15T14:34:51.645Z,54.00
2023-05-15T14:36:53.387Z,53.40
2023-05-15T14:38:55.151Z,53.20
2023-05-15T14:40:56.874Z,53.40
2023-05-15T14:42:58.550Z,53.50
2023-05-15T14:45:00.353Z,53.30
2023-05-15T14:47:09.114Z,53.60
2023-05-15T14:49:11.012Z,54.10
2023-05-15T14:51:12.827Z,53.70
2023-05-15T14:53:14.562Z,53.50
2023-05-15T14:55:21.874Z,52.80
2023-05-15T14:57:23.625Z,52.90
2023-05-15T14:59:25.632Z,53.20
2023-05-15T15:01:27.423Z,51.70
2023-05-15T15:03:31.897Z,52.70
2023-05-15T15:05:35.763Z,52.50
2023-05-15T15:07:56.385Z,52.00
2023-05-15T15:09:58.097Z,52.30
2023-05-15T15:11:59.860Z,52.00
2023-05-15T15:14:02.129Z,51.70
2023-05-15T15:16:04.742Z,52.00
2023-05-15T15:18:07.371Z,49.70
2023-05-15T15:20:09.447Z,49.80
2023-05-15T15:22:11.338Z,50.40
2023-05-15T15:24:13.044Z,50.40
2023-05-15T15:26:14.968Z,50.50
2023-05-15T15:28:16.681Z,50.70
2023-05-15T15:30:18.875Z,50.10
2023-05-15T15:32:20.679Z,50.20
2023-05-15T15:34:22.437Z,50.60
2023-05-15T15:36:24.827Z,50.50
2023-05-15T15:38:26.593Z,50.60
2023-05-15T15:40:29.814Z,50.80
2023-05-15T15:42:32.188Z,51.40
2023-05-15T15:44:34.151Z,50.90
2023-05-15T15:46:35.887Z,51.40
2023-05-15T15:48:37.579Z,51.10
2023-05-15T15:50:39.249Z,51.30
2023-05-15T15:52:41.515Z,50.10
2023-05-15T15:54:49.336Z,51.30
2023-05-15T15:56:54.377Z,49.50
2023-05-15T15:58:56.057Z,50.10
2023-05-15T16:00:57.922Z,49.50
2023-05-15T16:02:59.792Z,50.40
2023-05-15T16:05:01.685Z,50.70
2023-05-15T16:07:03.903Z,49.00
2023-05-15T16:09:05.705Z,49.10
2023-05-15T16:11:07.435Z,49.40
2023-05-15T16:13:09.174Z,48.90
2023-05-15T16:17:15.904Z,48.00
2023-05-15T16:19:17.571Z,47.80
2023-05-15T16:21:19.317Z,48.40
2023-05-15T16:23:21.279Z,48.30
2023-05-15T16:25:23.081Z,49.10
2023-05-15T16:27:24.774Z,48.10
2023-05-15T16:29:26.553Z,47.80
2023-05-15T16:31:28.283Z,48.10
2023-05-15T16:33:30.511Z,48.00
2023-05-15T16:35:32.423Z,48.40
2023-05-15T16:37:34.148Z,47.90
2023-05-15T16:39:38.866Z,48.50
2023-05-15T16:41:40.663Z,47.50
2023-05-15T16:43:42.297Z,47.40
2023-05-15T16:45:44.746Z,47.90
2023-05-15T16:47:46.463Z,47.80
2023-05-15T16:49:49.974Z,47.60
2023-05-15T16:51:52.807Z,48.10
2023-05-15T16:53:56.188Z,47.20
2023-05-15T16:55:57.954Z,47.10
2023-05-15T16:57:59.603Z,47.00
2023-05-15T17:00:01.269Z,47.20
2023-05-15T17:02:03.119Z,47.20
2023-05-15T17:04:05.916Z,46.20
2023-05-15T17:06:08.008Z,47.00
2023-05-15T17:08:09.661Z,47.70
2023-05-15T17:10:11.999Z,47.30
2023-05-15T17:12:13.796Z,47.00
2023-05-15T17:14:15.613Z,46.80
2023-05-15T17:16:17.372Z,47.10
2023-05-15T17:18:19.086Z,47.80
2023-05-15T17:20:20.894Z,47.50
2023-05-15T17:22:22.852Z,47.60
2023-05-15T17:24:24.714Z,47.70
2023-05-15T17:26:26.756Z,48.10
2023-05-15T17:28:28.807Z,48.10
2023-05-15T17:30:30.728Z,47.60
2023-05-15T17:32:32.616Z,48.20
2023-05-15T17:34:34.791Z,48.20
2023-05-15T17:36:36.440Z,48.00
2023-05-15T17:38:38.284Z,47.90
2023-05-15T17:40:40.703Z,48.00
2023-05-15T17:42:42.434Z,48.50
2023-05-15T17:44:44.149Z,48.30
2023-05-15T17:46:45.922Z,48.20
2023-05-15T17:48:47.643Z,48.20
2023-05-15T17:50:49.702Z,48.40
2023-05-15T17:52:51.475Z,48.80
2023-05-15T17:54:53.183Z,48.60
2023-05-15T17:56:54.992Z,48.90
2023-05-15T17:58:56.827Z,49.10
2023-05-15T18:00:59.029Z,49.20
2023-05-15T18:03:01.537Z,49.40
2023-05-15T18:05:03.445Z,49.30
2023-05-15T18:07:05.206Z,49.30
2023-05-15T18:09:07.547Z,49.40
2023-05-15T18:11:21.280Z,49.20
2023-05-15T18:13:24.385Z,49.40
2023-05-15T18:15:26.272Z,49.50
2023-05-15T18:17:28.873Z,49.70
2023-05-15T18:19:33.446Z,49.90
2023-05-15T18:21:37.990Z,50.00
2023-05-15T18:23:39.896Z,50.20
2023-05-15T18:25:41.685Z,50.50
2023-05-15T18:27:43.474Z,50.20
2023-05-15T18:29:45.744Z,50.40
2023-05-15T18:31:47.604Z,50.50
2023-05-15T18:33:49.420Z,50.50
2023-05-15T18:35:52.263Z,50.60
2023-05-15T18:37:54.072Z,50.70
2023-05-15T18:39:57.037Z,51.00
2023-05-15T18:41:59.942Z,51.00
2023-05-15T18:44:01.774Z,50.80
2023-05-15T18:46:03.950Z,50.80
2023-05-15T18:48:05.955Z,50.90
2023-05-15T18:50:08.157Z,51.10
2023-05-15T18:52:09.996Z,51.10
2023-05-15T18:54:11.872Z,51.00
2023-05-15T18:56:13.654Z,51.10
2023-05-15T18:58:15.441Z,51.10
2023-05-15T19:00:26.605Z,51.20
2023-05-15T19:02:40.326Z,51.20
2023-05-15T19:04:42.128Z,51.20
2023-05-15T19:06:44.139Z,51.40
2023-05-15T19:08:46.893Z,51.60
2023-05-15T19:10:48.809Z,51.70
2023-05-15T19:12:50.674Z,51.90
2023-05-15T19:14:52.675Z,51.90
2023-05-15T19:16:54.452Z,51.90
2023-05-15T19:18:56.370Z,51.80
2023-05-15T19:20:58.245Z,52.00
2023-05-15T19:23:00.037Z,52.00
2023-05-15T19:25:01.884Z,52.10
2023-05-15T19:27:03.594Z,52.50
2023-05-15T19:29:05.476Z,52.30
2023-05-15T19:31:14.112Z,52.30
2023-05-15T19:33:22.431Z,52.40
2023-05-15T19:35:24.391Z,52.60
2023-05-15T19:37:26.135Z,52.70
2023-05-15T19:39:27.877Z,52.90
2023-05-15T19:41:29.666Z,52.90
2023-05-15T19:43:35.852Z,53.00
2023-05-15T19:45:39.553Z,53.00
2023-05-15T19:47:42.830Z,53.20
2023-05-15T19:49:45.247Z,53.00
2023-05-15T19:51:47.012Z,52.90
2023-05-15T19:53:48.867Z,53.00
2023-05-15T19:55:50.631Z,53.10
2023-05-15T19:57:55.008Z,53.30
2023-05-15T19:59:56.785Z,53.60
2023-05-15T20:01:58.619Z,53.50
2023-05-15T20:04:00.658Z,53.50
2023-05-15T20:06:02.785Z,53.90
2023-05-15T20:08:04.589Z,53.90
2023-05-15T20:10:09.369Z,54.10
2023-05-15T20:12:11.495Z,54.10
2023-05-15T20:14:14.659Z,54.20
2023-05-15T20:16:16.627Z,54.20
2023-05-15T20:18:18.497Z,54.30
2023-05-15T20:20:21.505Z,54.50
2023-05-15T20:22:23.444Z,54.70
2023-05-15T20:24:26.363Z,54.60
2023-05-15T20:26:28.124Z,54.80
2023-05-15T20:28:29.800Z,54.90
2023-05-15T20:30:31.590Z,54.70
2023-05-15T20:32:33.632Z,54.70
2023-05-15T20:34:36.840Z,54.80
2023-05-15T20:36:38.974Z,54.90
2023-05-15T20:38:41.498Z,54.90
2023-05-15T20:40:43.303Z,55.00
2023-05-15T20:42:45.117Z,55.20
2023-05-15T20:44:47.037Z,55.40
2023-05-15T20:46:48.784Z,55.30
2023-05-15T20:48:50.571Z,55.50
2023-05-15T20:50:53.450Z,55.40
2023-05-15T20:52:55.749Z,55.40
2023-05-15T20:54:57.570Z,56.10
2023-05-15T20:56:59.272Z,55.60
2023-05-15T20:59:00.899Z,55.80
2023-05-15T21:01:02.850Z,55.90
2023-05-15T21:03:05.203Z,55.80
2023-05-15T21:05:07.749Z,55.70
2023-05-15T21:07:09.693Z,55.80
2023-05-15T21:09:13.414Z,55.60
2023-05-15T21:11:15.262Z,55.90
2023-05-15T21:13:17.332Z,56.10
2023-05-15T21:15:19.311Z,56.20
2023-05-15T21:17:21.542Z,56.30
2023-05-15T21:19:23.450Z,56.40
2023-05-15T21:21:25.459Z,56.40
2023-05-15T21:23:27.296Z,56.30
2023-05-15T21:25:29.034Z,56.40
2023-05-15T21:27:30.760Z,56.40
2023-05-15T21:29:32.451Z,56.40
2023-05-15T21:31:34.152Z,56.40
2023-05-15T21:33:36.464Z,56.30
2023-05-15T21:35:39.669Z,56.40
2023-05-15T21:37:41.369Z,56.40
2023-05-15T21:39:43.178Z,56.40
2023-05-15T21:41:44.894Z,56.60
2023-05-15T21:43:46.560Z,56.50
2023-05-15T21:45:48.413Z,56.50
2023-05-15T21:47:50.109Z,56.50
2023-05-15T21:49:51.971Z,56.50
2023-05-15T21:51:53.638Z,56.80
2023-05-15T21:53:55.339Z,56.70
2023-05-15T21:56:00.850Z,56.90
2023-05-15T21:58:02.592Z,57.10
2023-05-15T22:00:07.281Z,56.90
2023-05-15T22:02:09.439Z,57.00
2023-05-15T22:04:11.613Z,57.10
2023-05-15T22:06:13.542Z,57.00
2023-05-15T22:08:15.479Z,57.10
2023-05-15T22:10:17.167Z,57.00
2023-05-15T22:12:18.934Z,57.10
2023-05-15T22:14:20.777Z,57.10
2023-05-15T22:16:22.664Z,57.10
2023-05-15T22:18:24.740Z,57.20
2023-05-15T22:20:26.911Z,57.30
2023-05-15T22:22:29.124Z,57.20
2023-05-15T22:24:30.831Z,57.30
2023-05-15T22:26:33.191Z,57.40
2023-05-15T22:28:34.946Z,57.40
2023-05-15T22:30:36.646Z,57.40
2023-05-15T22:32:38.484Z,57.40
2023-05-15T22:34:40.416Z,57.40
2023-05-15T22:36:42.363Z,57.60
2023-05-15T22:38:44.386Z,57.50
2023-05-15T22:40:50.576Z,57.50
2023-05-15T22:42:52.958Z,57.60
2023-05-15T22:44:57.884Z,57.60
2023-05-15T22:46:59.866Z,57.60
2023-05-15T22:49:02.950Z,57.40
2023-05-15T22:51:05.560Z,57.70
2023-05-15T22:53:07.508Z,57.60
2023-05-15T22:55:11.053Z,57.50
2023-05-15T22:57:13.012Z,57.50
2023-05-15T22:59:16.047Z,57.50
2023-05-15T23:01:18.178Z,57.50
2023-05-15T23:03:20.405Z,57.40
2023-05-15T23:05:23.210Z,57.80
2023-05-15T23:07:25.386Z,58.10
2023-05-15T23:09:27.792Z,57.40
2023-05-15T23:11:30.517Z,57.40
2023-05-15T23:13:32.425Z,57.50
2023-05-15T23:15:34.238Z,57.40
2023-05-15T23:17:36.424Z,57.20
2023-05-15T23:19:38.209Z,57.20
2023-05-15T23:21:39.872Z,57.30
2023-05-15T23:23:41.501Z,57.30
2023-05-15T23:25:43.149Z,57.30
2023-05-15T23:27:44.806Z,57.30
2023-05-15T23:29:46.476Z,57.40
2023-05-15T23:31:48.174Z,57.60
2023-05-15T23:33:50.313Z,57.40
2023-05-15T23:35:52.249Z,57.40
2023-05-15T23:37:53.884Z,57.30
2023-05-15T23:39:55.671Z,57.30
2023-05-15T23:41:57.401Z,57.30
2023-05-15T23:43:59.131Z,57.30
2023-05-15T23:46:00.783Z,57.30
2023-05-15T23:48:02.428Z,57.20
2023-05-15T23:50:04.435Z,57.20
2023-05-15T23:52:06.992Z,57.20
2023-05-15T23:54:08.864Z,57.10
2023-05-15T23:56:10.520Z,57.20
2023-05-15T23:58:12.184Z,57.30
